Time;durP1;ratioP1;P1;durP2;ratioP2;P2;SDS_P1;SDS_P2;PMS_P1;PMS_P2;Temp;Humidity;BMP_temperature;BMP_pressure;BME280_temperature;BME280_humidity;BME280_pressure;Samples;Min_cycle;Max_cycle;Signal;HPM_P1;HPM_P2
2023/09/23 00:00:34;;;;;;;1.40;0.50;;;;;;;16.58;65.36;100033.66;4968031;28;20903;-68
2023/09/23 00:03:02;;;;;;;0.63;0.30;;;;;;;16.55;65.29;100034.03;4968525;28;20210;-68
2023/09/23 00:05:33;;;;;;;2.00;0.60;;;;;;;16.54;64.71;100032.38;4967809;28;20207;-68
2023/09/23 00:08:00;;;;;;;1.53;0.60;;;;;;;16.54;64.48;100040.41;4967628;28;20219;-68
2023/09/23 00:10:30;;;;;;;1.23;0.40;;;;;;;16.54;64.82;100040.41;4968049;28;20342;-69
2023/09/23 00:13:00;;;;;;;2.90;0.40;;;;;;;16.52;64.56;100043.31;4967513;28;20211;-67
2023/09/23 00:15:28;;;;;;;2.20;0.50;;;;;;;16.48;64.55;100042.03;4968303;28;20195;-67
2023/09/23 00:17:55;;;;;;;0.80;0.40;;;;;;;16.50;64.56;100049.88;4966935;28;20241;-73
2023/09/23 00:20:24;;;;;;;4.83;2.37;;;;;;;16.47;64.61;100045.72;4966719;28;20285;-69
2023/09/23 00:22:56;;;;;;;1.47;0.60;;;;;;;16.45;64.66;100049.59;4968042;28;20207;-69
2023/09/23 00:25:24;;;;;;;1.63;0.87;;;;;;;16.43;64.75;100062.38;4966921;28;20885;-69
2023/09/23 00:27:53;;;;;;;3.20;0.80;;;;;;;16.44;64.18;100053.34;4967796;28;20215;-69
2023/09/23 00:30:23;;;;;;;1.87;0.67;;;;;;;16.39;64.39;100058.44;4967034;28;20226;-69
2023/09/23 00:32:51;;;;;;;1.43;0.53;;;;;;;16.38;64.39;100059.44;4967035;28;20560;-67
2023/09/23 00:35:19;;;;;;;2.67;0.97;;;;;;;16.37;63.95;100065.81;4967588;28;20222;-68
2023/09/23 00:37:48;;;;;;;1.80;0.50;;;;;;;16.36;64.30;100069.53;4967554;28;20644;-69
2023/09/23 00:40:23;;;;;;;2.90;0.60;;;;;;;16.32;64.10;100073.63;4966299;28;20796;-69
2023/09/23 00:42:51;;;;;;;2.30;0.77;;;;;;;16.29;64.25;100076.66;4967302;28;20676;-68
2023/09/23 00:45:22;;;;;;;1.67;0.60;;;;;;;16.27;64.00;100076.06;4966160;28;20984;-69
2023/09/23 00:47:52;;;;;;;2.93;0.60;;;;;;;16.27;64.30;100081.41;4966830;28;20458;-69
2023/09/23 00:50:20;;;;;;;3.07;0.83;;;;;;;16.25;64.14;100078.09;4967064;28;20203;-69
2023/09/23 00:52:51;;;;;;;1.17;0.70;;;;;;;16.22;64.16;100073.13;4966128;28;20207;-67
2023/09/23 00:55:20;;;;;;;2.07;0.70;;;;;;;16.19;64.43;100069.81;4966902;28;20203;-70
2023/09/23 00:57:48;;;;;;;3.30;0.70;;;;;;;16.19;64.69;100067.13;4966216;28;20230;-68
2023/09/23 01:00:24;;;;;;;2.70;1.00;;;;;;;16.22;64.35;100059.75;4967296;28;20207;-68
2023/09/23 01:02:55;;;;;;;1.53;0.77;;;;;;;16.17;64.66;100055.81;4967113;28;20333;-68
2023/09/23 01:05:27;;;;;;;2.30;0.90;;;;;;;16.15;65.23;100044.47;4966518;28;20211;-68
2023/09/23 01:07:56;;;;;;;2.30;0.83;;;;;;;16.08;65.71;100045.47;4967107;28;20237;-70
2023/09/23 01:10:25;;;;;;;2.03;1.07;;;;;;;16.05;65.50;100043.16;4966563;28;20207;-69
2023/09/23 01:12:53;;;;;;;2.23;0.80;;;;;;;16.05;65.56;100044.00;4966458;28;20218;-68
2023/09/23 01:15:25;;;;;;;2.47;0.70;;;;;;;16.02;65.99;100047.03;4966378;28;20234;-66
2023/09/23 01:17:54;;;;;;;3.30;0.70;;;;;;;16.02;66.02;100047.03;4965828;28;20338;-69
2023/09/23 01:20:23;;;;;;;1.67;0.90;;;;;;;16.03;66.06;100053.22;4966851;28;20215;-68
2023/09/23 01:22:54;;;;;;;2.13;0.90;;;;;;;16.01;65.94;100050.72;4966997;28;20305;-68
2023/09/23 01:25:22;;;;;;;3.27;0.93;;;;;;;15.99;66.54;100063.50;4968830;28;20253;-68
2023/09/23 01:27:50;;;;;;;2.83;1.47;;;;;;;15.98;66.53;100072.53;4967572;28;20206;-68
2023/09/23 01:30:21;;;;;;;4.40;1.80;;;;;;;15.97;66.45;100075.38;4967419;28;20218;-68
2023/09/23 01:32:51;;;;;;;2.23;0.93;;;;;;;15.95;66.77;100082.78;4968852;28;20198;-68
2023/09/23 01:35:20;;;;;;;2.83;1.17;;;;;;;15.95;66.66;100086.28;4967078;28;20206;-67
2023/09/23 01:37:50;;;;;;;3.07;1.13;;;;;;;15.91;67.00;100093.03;4967444;28;20230;-67
2023/09/23 01:40:24;;;;;;;4.77;1.33;;;;;;;15.90;67.29;100094.06;4966065;28;20202;-68
2023/09/23 01:42:53;;;;;;;3.53;1.47;;;;;;;15.92;67.14;100093.88;4966529;28;20708;-68
2023/09/23 01:45:23;;;;;;;5.50;1.40;;;;;;;15.92;67.06;100093.88;4965973;28;20305;-67
2023/09/23 01:47:50;;;;;;;6.17;1.50;;;;;;;15.92;67.44;100094.66;4966047;28;20302;-68
2023/09/23 01:50:18;;;;;;;2.40;1.03;;;;;;;15.83;67.38;100097.69;4965160;28;20656;-68
2023/09/23 01:52:47;;;;;;;3.03;1.30;;;;;;;15.80;67.58;100101.56;4965675;28;20234;-70
2023/09/23 01:55:16;;;;;;;3.67;1.03;;;;;;;15.82;67.96;100104.06;4966038;28;20289;-68
2023/09/23 01:57:47;;;;;;;2.47;1.20;;;;;;;15.82;68.25;100109.41;4965176;28;20334;-71
2023/09/23 02:00:18;;;;;;;2.83;1.17;;;;;;;15.86;67.75;100106.13;4965578;28;20221;-68
2023/09/23 02:02:46;;;;;;;4.47;1.70;;;;;;;15.81;68.08;100111.25;4965817;28;20289;-69
2023/09/23 02:05:14;;;;;;;2.20;0.90;;;;;;;15.69;68.38;100102.88;4965592;28;20585;-69
2023/09/23 02:07:42;;;;;;;2.30;1.10;;;;;;;15.59;69.05;100115.72;4965087;28;20219;-68
2023/09/23 02:10:11;;;;;;;3.47;1.33;;;;;;;15.53;70.08;100116.47;4965566;28;20793;-68
2023/09/23 02:12:39;;;;;;;2.57;1.30;;;;;;;15.58;69.16;100121.25;4965374;28;20215;-66
2023/09/23 02:15:08;;;;;;;3.70;1.80;;;;;;;15.53;70.08;100120.97;4965650;28;20871;-67
2023/09/23 02:17:36;;;;;;;3.43;1.53;;;;;;;15.47;69.88;100121.75;4965194;28;20294;-69
2023/09/23 02:20:09;;;;;;;2.53;1.40;;;;;;;15.52;69.74;100135.34;4965360;28;20238;-67
2023/09/23 02:22:37;;;;;;;4.03;1.40;;;;;;;15.59;69.80;100138.94;4964820;28;20301;-69
2023/09/23 02:25:07;;;;;;;2.63;0.90;;;;;;;15.61;69.29;100145.78;4965049;28;20569;-69
2023/09/23 02:27:35;;;;;;;4.67;1.30;;;;;;;15.66;69.15;100153.22;4964224;28;20643;-69
2023/09/23 02:30:09;;;;;;;2.93;1.00;;;;;;;15.68;69.18;100151.19;4965135;28;20305;-68
2023/09/23 02:32:40;;;;;;;3.30;1.30;;;;;;;15.67;69.03;100150.34;4965404;28;20603;-66
2023/09/23 02:35:11;;;;;;;2.47;1.30;;;;;;;15.64;69.57;100144.56;4964085;28;20206;-69
2023/09/23 02:37:39;;;;;;;1.83;0.97;;;;;;;15.65;69.29;100151.59;4965065;28;20624;-69
2023/09/23 02:40:12;;;;;;;2.33;1.00;;;;;;;15.70;68.97;100154.50;4965327;28;20227;-68
2023/09/23 02:42:44;;;;;;;3.27;1.07;;;;;;;15.71;69.22;100151.66;4965264;28;20553;-68
2023/09/23 02:45:14;;;;;;;8.60;1.40;;;;;;;15.73;68.71;100154.97;4965247;28;20210;-68
2023/09/23 02:47:44;;;;;;;4.63;1.20;;;;;;;15.75;69.06;100162.78;4964574;28;20207;-69
2023/09/23 02:50:13;;;;;;;2.80;1.20;;;;;;;15.75;69.09;100163.59;4965366;28;20579;-68
2023/09/23 02:52:44;;;;;;;4.00;0.90;;;;;;;15.73;68.56;100164.84;4965734;28;21090;-68
2023/09/23 02:55:14;;;;;;;2.67;1.00;;;;;;;15.70;69.18;100166.03;4965645;28;20280;-68
2023/09/23 02:57:46;;;;;;;4.40;0.90;;;;;;;15.68;68.93;100165.38;4964859;28;20210;-68
2023/09/23 03:00:19;;;;;;;3.47;1.00;;;;;;;15.68;69.21;100169.91;4965425;28;20229;-68
2023/09/23 03:02:54;;;;;;;1.70;0.90;;;;;;;15.68;69.04;100167.22;4965118;28;20207;-68
2023/09/23 03:05:26;;;;;;;2.80;1.00;;;;;;;15.67;69.15;100176.25;4964847;28;20209;-68
2023/09/23 03:07:57;;;;;;;4.37;0.83;;;;;;;15.66;68.94;100182.59;4965116;28;20207;-68
2023/09/23 03:10:33;;;;;;;4.93;1.27;;;;;;;15.61;68.64;100185.03;4964678;28;20211;-67
2023/09/23 03:13:06;;;;;;;1.33;0.80;;;;;;;15.60;69.16;100183.38;4965195;28;20294;-66
2023/09/23 03:15:41;;;;;;;1.77;0.90;;;;;;;15.57;68.93;100184.56;4966528;28;20203;-69
2023/09/23 03:18:14;;;;;;;3.40;1.00;;;;;;;15.59;69.04;100184.38;4968922;28;20321;-70
2023/09/23 03:20:43;;;;;;;4.00;1.20;;;;;;;15.53;68.87;100191.28;4968898;28;20203;-69
2023/09/23 03:23:10;;;;;;;2.87;0.87;;;;;;;15.39;69.06;100184.94;4967565;28;20209;-68
2023/09/23 03:25:45;;;;;;;2.60;0.90;;;;;;;15.20;69.70;100195.38;4968697;28;20215;-68
2023/09/23 03:28:15;;;;;;;3.10;1.40;;;;;;;15.09;70.21;100199.31;4943087;28;20202;-66
2023/09/23 03:30:47;;;;;;;3.27;1.47;;;;;;;14.99;70.58;100204.09;4968724;28;20203;-68
2023/09/23 03:33:18;;;;;;;7.60;2.30;;;;;;;14.92;71.34;100212.03;4968661;28;20659;-69
2023/09/23 03:35:47;;;;;;;2.07;1.20;;;;;;;14.90;71.31;100213.19;4968427;28;20199;-69
2023/09/23 03:38:15;;;;;;;3.33;1.70;;;;;;;14.84;71.22;100217.44;4968167;28;20257;-68
2023/09/23 03:40:50;;;;;;;5.80;1.33;;;;;;;14.82;71.53;100224.78;4969072;28;20230;-68
2023/09/23 03:43:18;;;;;;;5.10;1.60;;;;;;;14.75;71.98;100223.03;4967423;28;20592;-68
2023/09/23 03:45:47;;;;;;;2.37;1.00;;;;;;;14.68;72.42;100228.28;4968155;28;20926;-67
2023/09/23 03:48:16;;;;;;;1.57;0.97;;;;;;;14.65;72.11;100232.13;4967942;28;20218;-69
2023/09/23 03:50:44;;;;;;;2.63;1.40;;;;;;;14.53;72.83;100230.03;4968076;28;20298;-68
2023/09/23 03:53:13;;;;;;;5.33;1.00;;;;;;;14.42;73.40;100233.16;4968074;28;20496;-68
2023/09/23 03:55:41;;;;;;;2.37;1.13;;;;;;;14.35;73.72;100233.00;4968754;28;20260;-68
2023/09/23 03:58:10;;;;;;;3.83;1.50;;;;;;;14.30;74.01;100238.03;4967463;28;20309;-68
2023/09/23 04:00:38;;;;;;;4.20;1.53;;;;;;;14.36;73.71;100244.50;4968124;28;20303;-68
2023/09/23 04:03:07;;;;;;;2.73;1.10;;;;;;;14.30;74.27;100248.72;4967720;28;20274;-68
2023/09/23 04:05:38;;;;;;;3.07;1.33;;;;;;;14.27;73.86;100259.72;4967579;28;20215;-68
2023/09/23 04:08:07;;;;;;;4.80;1.30;;;;;;;14.14;74.77;100256.81;4967808;28;20306;-68
2023/09/23 04:10:39;;;;;;;5.20;1.57;;;;;;;14.06;75.22;100263.03;4968006;28;20662;-67
2023/09/23 04:13:09;;;;;;;4.77;1.80;;;;;;;14.08;75.73;100268.16;4968361;28;20322;-69
2023/09/23 04:15:37;;;;;;;4.03;1.40;;;;;;;14.24;74.72;100257.44;4967781;28;20214;-68
2023/09/23 04:18:06;;;;;;;2.37;1.27;;;;;;;14.37;74.46;100257.66;4967103;28;20220;-67
2023/09/23 04:20:36;;;;;;;1.87;1.00;;;;;;;14.40;73.93;100268.00;4967591;28;20700;-68
2023/09/23 04:23:06;;;;;;;3.63;1.60;;;;;;;14.31;73.99;100269.03;4967877;28;20285;-66
2023/09/23 04:25:34;;;;;;;2.37;1.37;;;;;;;14.23;74.83;100272.59;4967014;28;20207;-68
2023/09/23 04:28:03;;;;;;;2.20;1.10;;;;;;;14.11;75.34;100284.66;4967499;28;20222;-69
2023/09/23 04:30:30;;;;;;;4.50;1.30;;;;;;;14.10;75.32;100282.16;4967259;28;20301;-68
2023/09/23 04:33:00;;;;;;;5.07;1.00;;;;;;;14.01;76.26;100288.53;4968290;28;20297;-69
2023/09/23 04:35:29;;;;;;;3.73;1.73;;;;;;;14.01;76.29;100291.22;4967209;28;20211;-68
2023/09/23 04:37:57;;;;;;;4.80;1.50;;;;;;;14.01;76.08;100293.88;4967277;28;20288;-68
2023/09/23 04:40:26;;;;;;;6.17;2.50;;;;;;;14.01;76.66;100293.88;4966343;28;20365;-67
2023/09/23 04:42:54;;;;;;;3.00;1.07;;;;;;;14.19;75.88;100294.44;4966966;28;20281;-68
2023/09/23 04:45:22;;;;;;;2.03;0.93;;;;;;;14.36;75.08;100297.84;4967306;28;20199;-66
2023/09/23 04:47:51;;;;;;;4.33;1.50;;;;;;;14.47;73.81;100290.28;4966880;28;20234;-68
2023/09/23 04:50:23;;;;;;;3.73;1.00;;;;;;;14.25;74.41;100294.56;4965570;28;20588;-71
2023/09/23 04:52:51;;;;;;;4.97;1.00;;;;;;;14.10;75.63;100303.50;4967517;28;20292;-70
2023/09/23 04:55:19;;;;;;;1.57;0.80;;;;;;;14.03;75.91;100302.53;4966049;28;20212;-67
2023/09/23 04:57:48;;;;;;;5.27;1.30;;;;;;;13.85;76.51;100305.44;4967290;28;20233;-68
2023/09/23 05:00:19;;;;;;;3.13;0.90;;;;;;;13.75;77.32;100315.47;4967428;28;20325;-70
2023/09/23 05:02:49;;;;;;;1.60;0.70;;;;;;;13.81;77.16;100314.78;4967248;28;20381;-70
2023/09/23 05:05:18;;;;;;;4.40;0.80;;;;;;;13.76;77.21;100323.31;4967057;28;20213;-69
2023/09/23 05:07:46;;;;;;;1.83;0.90;;;;;;;13.77;76.79;100330.31;4965739;28;20213;-68
2023/09/23 05:10:14;;;;;;;4.67;1.00;;;;;;;13.79;76.61;100333.63;4966470;28;20297;-69
2023/09/23 05:12:44;;;;;;;5.53;1.07;;;;;;;13.69;77.38;100340.16;4966877;28;20762;-68
2023/09/23 05:15:15;;;;;;;2.13;0.80;;;;;;;13.63;77.74;100338.19;4966825;28;20233;-67
2023/09/23 05:17:43;;;;;;;3.03;1.10;;;;;;;13.52;77.98;100342.88;4966491;28;20209;-70
2023/09/23 05:20:25;;;;;;;3.30;1.07;;;;;;;13.54;78.36;100332.84;4966562;28;20311;-67
2023/09/23 05:22:53;;;;;;;6.33;0.90;;;;;;;13.59;78.10;100340.34;4966925;28;20333;-71
2023/09/23 05:25:24;;;;;;;6.33;1.53;;;;;;;13.59;78.29;100343.00;4966245;28;20217;-67
2023/09/23 05:27:53;;;;;;;5.50;0.90;;;;;;;13.65;77.63;100349.47;4966654;28;20599;-67
2023/09/23 05:30:26;;;;;;;4.70;0.93;;;;;;;13.70;77.22;100349.81;4966109;28;20214;-69
2023/09/23 05:32:54;;;;;;;3.97;1.00;;;;;;;13.69;77.63;100351.66;4966336;28;20225;-69
2023/09/23 05:35:21;;;;;;;1.73;0.70;;;;;;;13.68;77.39;100352.66;4965855;28;20739;-67
2023/09/23 05:37:52;;;;;;;6.17;1.30;;;;;;;13.66;77.19;100353.81;4965048;28;20675;-66
2023/09/23 05:40:26;;;;;;;5.43;1.13;;;;;;;13.56;77.67;100362.81;4965869;28;20676;-68
2023/09/23 05:42:55;;;;;;;8.23;1.33;;;;;;;13.56;77.48;100364.66;4966722;28;20229;-68
2023/09/23 05:45:24;;;;;;;6.07;1.40;;;;;;;13.57;77.54;100366.31;4966200;28;20201;-68
2023/09/23 05:47:53;;;;;;;3.10;1.47;;;;;;;13.51;77.78;100367.00;4965853;28;20221;-68
2023/09/23 05:50:21;;;;;;;4.40;2.33;;;;;;;13.42;78.46;100376.00;4966472;28;20260;-69
2023/09/23 05:52:50;;;;;;;3.97;1.60;;;;;;;13.52;77.98;100384.66;4966202;28;20209;-69
2023/09/23 05:55:17;;;;;;;3.07;1.37;;;;;;;13.59;77.59;100385.63;4966002;28;20280;-69
2023/09/23 05:57:45;;;;;;;8.30;1.30;;;;;;;13.59;77.57;100372.31;4965251;28;20237;-68
2023/09/23 06:00:15;;;;;;;3.50;1.40;;;;;;;13.61;77.27;100382.81;4965301;28;20231;-68
2023/09/23 06:02:45;;;;;;;1.40;0.80;;;;;;;13.74;76.76;100378.59;4965430;28;20292;-67
2023/09/23 06:05:13;;;;;;;2.27;1.00;;;;;;;13.81;76.70;100378.75;4966242;28;20263;-68
2023/09/23 06:07:42;;;;;;;4.17;1.27;;;;;;;13.84;76.21;100384.56;4965471;28;20927;-68
2023/09/23 06:10:18;;;;;;;5.93;1.40;;;;;;;13.79;76.53;100386.09;4965423;28;20217;-68
2023/09/23 06:12:46;;;;;;;4.30;1.10;;;;;;;13.79;76.75;100397.59;4966127;28;20209;-68
2023/09/23 06:15:15;;;;;;;3.10;0.97;;;;;;;13.72;76.99;100393.91;4965875;28;20276;-65
2023/09/23 06:17:43;;;;;;;2.67;1.20;;;;;;;13.83;76.48;100398.06;4965181;28;20233;-68
2023/09/23 06:20:13;;;;;;;2.87;1.03;;;;;;;13.78;76.32;100411.09;4965636;28;20216;-67
2023/09/23 06:22:41;;;;;;;3.43;1.20;;;;;;;13.65;76.88;100408.09;4965881;28;20212;-69
2023/09/23 06:25:10;;;;;;;4.80;1.30;;;;;;;13.63;77.35;100418.13;4964902;28;20211;-68
2023/09/23 06:27:38;;;;;;;2.63;1.37;;;;;;;13.69;77.43;100423.59;4947919;28;20209;-68
2023/09/23 06:30:07;;;;;;;2.73;1.13;;;;;;;13.71;77.11;100426.09;4966556;28;20281;-65
2023/09/23 06:32:35;;;;;;;4.17;1.37;;;;;;;13.71;77.32;100426.09;4968189;28;20241;-68
2023/09/23 06:35:03;;;;;;;4.50;1.50;;;;;;;13.93;76.84;100436.03;4967705;28;20312;-68
2023/09/23 06:37:32;;;;;;;5.03;1.70;;;;;;;14.13;76.09;100431.16;4966782;28;20202;-70
2023/09/23 06:40:00;;;;;;;5.07;1.30;;;;;;;14.29;75.75;100441.75;4966846;28;20219;-68
2023/09/23 06:42:28;;;;;;;3.30;1.50;;;;;;;14.44;74.78;100450.72;4966719;28;20328;-70
2023/09/23 06:44:56;;;;;;;5.30;1.10;;;;;;;14.56;74.28;100448.50;4965781;28;20232;-70
2023/09/23 06:47:24;;;;;;;4.10;1.30;;;;;;;14.66;73.14;100441.94;4964698;28;20263;-67
2023/09/23 06:49:53;;;;;;;6.20;1.80;;;;;;;14.75;72.10;100448.06;4965566;28;20206;-69
2023/09/23 06:52:24;;;;;;;3.23;1.13;;;;;;;14.81;72.08;100446.53;4969679;28;20217;-70
2023/09/23 06:54:54;;;;;;;5.87;1.30;;;;;;;14.69;72.60;100449.59;4966663;28;20206;-68
2023/09/23 06:57:22;;;;;;;3.07;0.83;;;;;;;14.54;73.21;100462.00;4969397;28;20225;-67
2023/09/23 06:59:50;;;;;;;2.60;1.00;;;;;;;14.43;74.20;100465.06;4968921;28;20207;-68
2023/09/23 07:02:19;;;;;;;2.70;1.07;;;;;;;14.39;74.27;100471.75;4968426;28;20234;-69
2023/09/23 07:04:47;;;;;;;5.23;1.37;;;;;;;14.23;74.38;100469.13;4968707;28;20203;-68
2023/09/23 07:07:15;;;;;;;5.43;1.10;;;;;;;14.15;75.61;100474.47;4968199;28;20222;-70
2023/09/23 07:09:44;;;;;;;3.30;1.20;;;;;;;14.12;75.78;100472.97;4969450;28;20239;-69
2023/09/23 07:12:14;;;;;;;3.90;1.30;;;;;;;14.09;75.94;100467.97;4966269;28;20334;-69
2023/09/23 07:14:45;;;;;;;1.60;1.00;;;;;;;14.20;75.66;100480.94;4969511;28;20203;-68
2023/09/23 07:17:12;;;;;;;6.00;1.10;;;;;;;14.24;76.00;100473.44;4968062;28;20301;-68
2023/09/23 07:19:43;;;;;;;3.30;1.20;;;;;;;14.32;75.66;100478.75;4969460;28;20222;-70
2023/09/23 07:22:10;;;;;;;4.40;1.10;;;;;;;14.31;75.42;100485.94;4968060;28;20236;-72
2023/09/23 07:24:38;;;;;;;6.23;1.30;;;;;;;14.36;75.55;100489.91;4969207;28;20282;-68
2023/09/23 07:27:06;;;;;;;2.03;0.97;;;;;;;14.26;75.82;100482.09;4968267;28;20206;-64
2023/09/23 07:29:35;;;;;;;2.57;1.07;;;;;;;14.41;75.40;100488.44;4968154;28;20706;-69
2023/09/23 07:32:03;;;;;;;4.03;1.10;;;;;;;14.47;75.29;100498.41;4968463;28;20210;-68
2023/09/23 07:34:30;;;;;;;2.53;0.97;;;;;;;14.55;74.83;100485.03;4968429;28;20595;-68
2023/09/23 07:36:58;;;;;;;5.13;1.03;;;;;;;14.59;75.10;100497.03;4968078;28;20213;-70
2023/09/23 07:39:26;;;;;;;2.33;0.90;;;;;;;14.87;73.91;100496.53;4968796;28;20222;-72
2023/09/23 07:41:55;;;;;;;3.37;0.70;;;;;;;14.88;72.46;100498.19;4967819;28;20260;-70
2023/09/23 07:44:22;;;;;;;4.77;0.90;;;;;;;14.96;71.62;100495.47;4968298;28;20203;-69
2023/09/23 07:46:52;;;;;;;3.73;0.90;;;;;;;15.11;71.63;100496.41;4967511;28;20210;-69
2023/09/23 07:49:19;;;;;;;17.80;1.93;;;;;;;15.08;71.08;100504.78;4968065;28;20206;-68
2023/09/23 07:51:48;;;;;;;3.70;0.80;;;;;;;15.21;71.06;100501.53;4967821;28;20744;-68
2023/09/23 07:54:15;;;;;;;5.90;1.20;;;;;;;15.40;70.25;100507.22;4968163;28;20214;-67
2023/09/23 07:56:44;;;;;;;2.23;1.00;;;;;;;15.51;69.58;100513.16;4967281;28;20699;-69
2023/09/23 07:59:12;;;;;;;5.40;1.00;;;;;;;15.52;69.19;100518.31;4967755;28;20371;-67
2023/09/23 08:01:39;;;;;;;3.60;0.87;;;;;;;15.72;68.29;100522.22;4967488;28;20226;-68
2023/09/23 08:04:09;;;;;;;2.97;0.90;;;;;;;15.85;67.64;100532.28;4967956;28;20215;-69
2023/09/23 08:06:36;;;;;;;2.17;0.97;;;;;;;15.81;68.12;100539.00;4968126;28;20977;-68
2023/09/23 08:09:06;;;;;;;2.10;1.07;;;;;;;15.81;68.40;100533.66;4967524;28;20218;-69
2023/09/23 08:11:33;;;;;;;8.20;1.17;;;;;;;15.99;68.25;100536.84;4967603;28;20213;-68
2023/09/23 08:14:01;;;;;;;2.67;1.20;;;;;;;16.18;67.41;100555.03;4968206;28;20214;-68
2023/09/23 08:16:29;;;;;;;1.83;0.90;;;;;;;16.24;67.27;100552.66;4967440;28;20207;-69
2023/09/23 08:18:57;;;;;;;7.40;1.13;;;;;;;16.36;66.78;100562.72;4967011;28;20217;-69
2023/09/23 08:21:26;;;;;;;3.57;1.30;;;;;;;16.66;65.62;100570.78;4966565;28;20559;-70
2023/09/23 08:23:54;;;;;;;3.93;1.13;;;;;;;16.72;65.40;100578.06;4967254;28;20214;-71
2023/09/23 08:26:21;;;;;;;2.30;1.07;;;;;;;17.02;64.74;100568.16;4967141;28;20214;-70
2023/09/23 08:28:49;;;;;;;4.37;1.70;;;;;;;17.71;62.87;100568.53;4966853;28;20211;-69
2023/09/23 08:31:17;;;;;;;4.03;1.30;;;;;;;19.23;58.05;100575.75;4967110;28;20215;-70
2023/09/23 08:33:45;;;;;;;2.30;0.93;;;;;;;21.05;52.12;100569.72;4966910;28;20198;-69
2023/09/23 08:36:13;;;;;;;3.17;0.93;;;;;;;22.84;47.17;100568.19;4966969;28;20215;-69
2023/09/23 08:38:42;;;;;;;3.43;0.97;;;;;;;24.18;44.03;100571.47;4966674;28;20289;-69
2023/09/23 08:41:12;;;;;;;7.73;1.23;;;;;;;23.52;44.72;100580.63;4965771;28;21143;-69
2023/09/23 08:43:43;;;;;;;2.40;0.80;;;;;;;22.48;46.91;100579.75;4967531;28;20202;-68
2023/09/23 08:46:12;;;;;;;5.07;1.20;;;;;;;21.64;49.11;100587.47;4967069;28;20313;-68
2023/09/23 08:48:41;;;;;;;3.45;1.17;;;;;;;23.87;45.49;100583.44;4966308;28;20620;-71
2023/09/23 08:51:12;;;;;;;2.50;1.50;;;;;;;28.94;36.25;100580.31;4966120;28;20305;-69
2023/09/23 08:53:42;;;;;;;3.95;1.48;;;;;;;32.51;30.41;100581.50;4967339;28;20225;-69
2023/09/23 08:56:11;;;;;;;3.50;0.80;;;;;;;35.10;26.72;100577.41;4966900;28;20234;-70
2023/09/23 08:58:39;;;;;;;5.07;1.25;;;;;;;37.27;24.16;100578.47;4967156;28;20798;-68
2023/09/23 09:01:07;;;;;;;4.28;1.15;;;;;;;37.32;23.32;100583.00;4967206;28;20241;-68
2023/09/23 09:03:36;;;;;;;2.92;1.00;;;;;;;36.65;24.02;100583.31;4967095;28;20237;-69
2023/09/23 09:06:04;;;;;;;4.05;1.00;;;;;;;36.74;23.84;100585.00;4964703;28;20211;-69
2023/09/23 09:08:32;;;;;;;2.40;1.10;;;;;;;35.62;24.38;100578.75;4967116;28;20207;-69
2023/09/23 09:11:01;;;;;;;2.97;1.08;;;;;;;33.89;26.41;100584.09;4966968;28;20265;-69
2023/09/23 09:13:32;;;;;;;4.40;1.10;;;;;;;31.33;28.99;100587.34;4966621;28;20206;-69
2023/09/23 09:16:04;;;;;;;2.83;1.23;;;;;;;28.51;33.54;100586.88;4965742;28;20214;-69
2023/09/23 09:18:34;;;;;;;4.20;1.63;;;;;;;26.25;36.80;100591.13;4965997;28;20206;-68
2023/09/23 09:21:02;;;;;;;3.33;1.05;;;;;;;24.79;39.63;100598.13;4965732;28;20307;-67
2023/09/23 09:23:32;;;;;;;2.15;1.10;;;;;;;24.04;40.95;100594.41;4966369;28;20322;-68
2023/09/23 09:26:02;;;;;;;3.20;1.10;;;;;;;23.50;42.52;100594.38;4966457;28;20661;-68
2023/09/23 09:28:30;;;;;;;2.10;1.17;;;;;;;23.02;43.04;100590.84;4965777;28;20199;-69
2023/09/23 09:30:59;;;;;;;3.10;0.95;;;;;;;22.31;44.59;100594.06;4966375;28;20293;-68
2023/09/23 09:33:31;;;;;;;4.25;1.42;;;;;;;21.81;46.37;100599.44;4966141;28;20851;-72
2023/09/23 09:35:58;;;;;;;9.93;1.50;;;;;;;21.34;47.14;100598.88;4966482;28;20209;-70
2023/09/23 09:38:27;;;;;;;4.13;1.40;;;;;;;21.18;48.23;100603.94;4965035;28;20249;-67
2023/09/23 09:41:04;;;;;;;3.35;1.23;;;;;;;21.07;48.39;100602.69;4966384;28;20313;-68
2023/09/23 09:43:33;;;;;;;2.65;0.82;;;;;;;20.71;48.49;100599.69;4965216;28;20665;-66
2023/09/23 09:46:07;;;;;;;3.78;1.38;;;;;;;20.12;50.12;100597.88;4965890;28;20218;-68
2023/09/23 09:48:39;;;;;;;3.10;1.60;;;;;;;19.94;51.69;100590.41;4965532;28;20705;-68
2023/09/23 09:51:08;;;;;;;4.13;1.00;;;;;;;19.76;52.08;100587.50;4965665;28;20207;-68
2023/09/23 09:53:37;;;;;;;3.50;0.90;;;;;;;19.74;52.27;100592.25;4965750;28;20217;-66
2023/09/23 09:56:08;;;;;;;2.43;0.97;;;;;;;19.71;52.41;100589.94;4965889;28;20206;-69
2023/09/23 09:58:37;;;;;;;4.57;0.80;;;;;;;19.63;52.67;100585.59;4965426;28;20940;-69
2023/09/23 10:01:11;;;;;;;4.07;0.90;;;;;;;19.59;52.72;100592.44;4965832;28;20199;-69
2023/09/23 10:03:42;;;;;;;5.97;1.10;;;;;;;19.47;52.49;100594.03;4965547;28;20218;-68
2023/09/23 10:06:18;;;;;;;5.93;1.03;;;;;;;19.33;52.79;100592.34;4965640;28;20206;-69
2023/09/23 10:08:48;;;;;;;4.97;1.53;;;;;;;19.21;52.21;100594.75;4949427;28;20703;-69
2023/09/23 10:11:17;;;;;;;4.53;1.43;;;;;;;19.14;53.10;100586.69;4965762;28;20302;-69
2023/09/23 10:13:46;;;;;;;4.07;1.90;;;;;;;19.23;53.01;100594.56;4965512;28;20214;-70
2023/09/23 10:16:17;;;;;;;2.93;1.37;;;;;;;19.22;53.43;100587.53;4964602;28;20642;-69
2023/09/23 10:18:54;;;;;;;6.53;1.20;;;;;;;19.12;54.45;100590.59;4964221;28;20234;-70
2023/09/23 10:21:23;;;;;;;4.43;0.70;;;;;;;19.17;53.33;100594.31;4965400;28;20195;-68
2023/09/23 10:23:56;;;;;;;3.93;1.83;;;;;;;19.21;53.81;100584.00;4965415;28;20226;-69
2023/09/23 10:26:28;;;;;;;6.03;1.57;;;;;;;19.17;54.09;100585.47;4965786;28;20223;-68
2023/09/23 10:28:58;;;;;;;10.17;1.20;;;;;;;19.18;54.17;100579.84;4965231;28;20225;-67
2023/09/23 10:31:26;;;;;;;3.37;1.00;;;;;;;19.39;51.89;100591.50;4965267;28;20557;-70
2023/09/23 10:33:55;;;;;;;1.93;0.80;;;;;;;19.54;52.59;100593.03;4965860;28;20211;-71
2023/09/23 10:36:23;;;;;;;5.70;0.70;;;;;;;19.58;51.35;100589.94;4965194;28;20289;-69
2023/09/23 10:38:51;;;;;;;4.20;1.00;;;;;;;19.42;51.85;100585.75;4964777;28;20293;-68
2023/09/23 10:41:19;;;;;;;3.50;1.20;;;;;;;19.32;52.23;100591.50;4965094;28;20226;-70
2023/09/23 10:43:55;;;;;;;3.33;1.10;;;;;;;19.20;52.57;100586.91;4965496;28;20236;-71
2023/09/23 10:46:23;;;;;;;2.97;0.87;;;;;;;19.05;53.27;100595.94;4965952;28;20198;-68
2023/09/23 10:48:51;;;;;;;2.17;0.73;;;;;;;19.24;51.74;100588.16;4965181;28;20278;-66
2023/09/23 10:51:19;;;;;;;2.87;1.20;;;;;;;19.13;52.69;100582.34;4965892;28;20207;-70
2023/09/23 10:53:49;;;;;;;5.63;1.07;;;;;;;19.02;53.02;100585.59;4968135;28;20266;-71
2023/09/23 10:56:20;;;;;;;6.00;0.90;;;;;;;19.36;52.78;100581.16;4966496;28;20207;-69
2023/09/23 10:58:51;;;;;;;2.10;0.60;;;;;;;19.49;50.59;100581.25;4965633;28;20261;-71
2023/09/23 11:01:20;;;;;;;2.70;0.70;;;;;;;19.74;51.31;100578.78;4966051;28;20199;-70
2023/09/23 11:03:49;;;;;;;5.17;0.80;;;;;;;19.97;50.44;100578.38;4965953;28;20218;-69
2023/09/23 11:06:18;;;;;;;4.03;1.03;;;;;;;20.20;50.04;100578.81;4965594;28;20207;-69
2023/09/23 11:08:45;;;;;;;2.30;0.70;;;;;;;20.44;49.27;100586.28;4964754;28;20209;-68
2023/09/23 11:11:14;;;;;;;3.40;0.80;;;;;;;20.59;48.73;100584.16;4964534;28;20625;-69
2023/09/23 11:13:42;;;;;;;1.57;0.70;;;;;;;20.53;47.94;100585.00;4963006;28;20203;-69
2023/09/23 11:16:10;;;;;;;2.60;0.77;;;;;;;20.60;47.72;100585.00;4965499;28;20522;-69
2023/09/23 11:18:39;;;;;;;2.93;0.73;;;;;;;20.57;47.78;100591.66;4964765;28;20223;-69
2023/09/23 11:21:07;;;;;;;3.93;0.93;;;;;;;20.35;48.08;100581.31;4963926;28;20227;-70
2023/09/23 11:23:35;;;;;;;1.93;0.60;;;;;;;20.52;48.21;100591.44;4964261;28;20759;-70
2023/09/23 11:26:03;;;;;;;3.10;0.90;;;;;;;20.89;46.78;100595.28;4965511;28;20298;-71
2023/09/23 11:28:31;;;;;;;2.57;1.17;;;;;;;21.28;46.47;100599.75;4964383;28;20206;-71
2023/09/23 11:30:59;;;;;;;6.68;1.17;;;;;;;21.41;46.15;100604.22;4965304;28;20218;-69
2023/09/23 11:33:26;;;;;;;3.30;0.70;;;;;;;21.27;46.41;100610.75;4964609;28;20222;-70